Time;durP1;ratioP1;P1;durP2;ratioP2;P2;SDS_P1;SDS_P2;PMS_P1;PMS_P2;Temp;Humidity;BMP_temperature;BMP_pressure;BME280_temperature;BME280_humidity;BME280_pressure;Samples;Min_cycle;Max_cycle;Signal;HPM_P1;HPM_P2
2021/12/14 00:01:02;;;;;;;9.00;6.18;;;10.20;88.50;;;;;;5127988;27;20483;-76
2021/12/14 00:03:31;;;;;;;10.13;6.28;;;10.30;89.80;;;;;;5109660;28;20032;-76
2021/12/14 00:05:57;;;;;;;7.95;6.57;;;10.30;88.80;;;;;;5108627;28;20020;-76
2021/12/14 00:08:26;;;;;;;6.72;5.80;;;10.30;89.30;;;;;;5110895;28;20115;-76
2021/12/14 00:13:45;;;;;;;7.45;6.45;;;10.20;89.00;;;;;;5093186;28;20480;-76
2021/12/14 00:16:12;;;;;;;8.35;6.07;;;10.20;89.20;;;;;;5102947;28;20031;-77
2021/12/14 00:18:39;;;;;;;8.02;6.43;;;10.30;89.80;;;;;;5121968;27;20050;-77
2021/12/14 00:21:21;;;;;;;7.32;5.90;;;10.30;89.50;;;;;;5112383;28;20024;-77
2021/12/14 00:24:06;;;;;;;8.93;6.25;;;10.40;89.50;;;;;;5109838;28;20038;-77
2021/12/14 00:26:35;;;;;;;8.25;6.43;;;10.40;89.30;;;;;;5108349;28;20027;-77
2021/12/14 00:29:00;;;;;;;9.02;7.00;;;10.40;89.30;;;;;;5091276;28;20080;-77
2021/12/14 00:31:26;;;;;;;7.57;5.88;;;10.40;89.10;;;;;;5109221;28;20028;-77
2021/12/14 00:33:59;;;;;;;8.38;6.75;;;10.30;88.30;;;;;;5111673;28;20020;-77
2021/12/14 00:36:25;;;;;;;7.97;6.20;;;10.30;89.10;;;;;;5109770;28;20122;-76
2021/12/14 00:38:56;;;;;;;8.93;6.75;;;10.20;88.80;;;;;;5109333;28;20481;-76
2021/12/14 00:41:27;;;;;;;9.23;6.72;;;10.30;89.70;;;;;;5108292;28;20055;-75
2021/12/14 00:43:54;;;;;;;9.02;6.88;;;10.30;88.90;;;;;;5108383;28;20090;-77
2021/12/14 00:46:20;;;;;;;10.25;6.80;;;10.30;89.80;;;;;;5092870;28;20038;-75
2021/12/14 00:48:49;;;;;;;9.15;6.80;;;10.40;89.70;;;;;;5110761;28;20035;-76
2021/12/14 00:51:16;;;;;;;10.70;8.05;;;10.30;88.90;;;;;;5108081;28;20032;-77
2021/12/14 00:53:44;;;;;;;8.77;6.93;;;10.40;89.40;;;;;;5108524;28;20019;-75
2021/12/14 00:56:11;;;;;;;10.48;7.65;;;10.40;89.40;;;;;;5107692;28;20032;-75
2021/12/14 00:58:37;;;;;;;10.00;7.13;;;10.40;89.30;;;;;;5100298;28;20030;-77
2021/12/14 01:01:11;;;;;;;11.38;7.78;;;10.40;88.70;;;;;;5127180;28;20027;-77
2021/12/14 01:03:40;;;;;;;9.15;7.03;;;10.40;89.40;;;;;;5111166;28;20114;-77
2021/12/14 01:06:11;;;;;;;11.20;7.55;;;10.40;88.70;;;;;;5109382;28;20016;-77
2021/12/14 01:08:40;;;;;;;11.50;7.95;;;10.40;89.10;;;;;;5109443;28;20035;-76
2021/12/14 01:11:30;;;;;;;10.60;7.82;;;10.40;88.30;;;;;;5091501;28;20039;-76
2021/12/14 01:14:04;;;;;;;11.43;8.13;;;10.30;88.80;;;;;;5108124;28;20115;-76
2021/12/14 01:16:47;;;;;;;;;;;10.40;89.30;;;;;;5093974;28;20073;-76
2021/12/14 01:19:20;;;;;;;8.73;6.45;;;10.50;88.90;;;;;;5107396;28;19911;-76
2021/12/14 01:27:08;;;;;;;10.25;7.78;;;10.30;88.70;;;;;;5107960;28;20020;-76
2021/12/14 01:29:34;;;;;;;10.43;7.55;;;10.40;88.70;;;;;;5108853;28;20446;-76
2021/12/14 01:32:02;;;;;;;11.57;8.60;;;10.40;88.70;;;;;;5090672;28;20028;-76
2021/12/14 01:34:31;;;;;;;10.60;7.95;;;10.30;88.60;;;;;;5108215;28;20042;-76
2021/12/14 01:37:02;;;;;;;11.85;8.55;;;10.30;88.80;;;;;;5109730;28;20023;-75
2021/12/14 01:42:18;;;;;;;11.93;9.15;;;10.40;88.80;;;;;;5108856;28;20053;-76
2021/12/14 01:45:00;;;;;;;11.63;8.30;;;10.40;88.60;;;;;;5107683;28;20030;-76
2021/12/14 01:47:30;;;;;;;10.80;7.70;;;10.30;88.60;;;;;;5107681;28;20020;-76
2021/12/14 01:49:56;;;;;;;12.02;8.85;;;10.30;88.60;;;;;;5108011;28;20508;-75
2021/12/14 01:52:27;;;;;;;11.95;8.45;;;10.40;88.70;;;;;;5106458;28;20107;-75
2021/12/14 01:54:57;;;;;;;11.32;8.38;;;10.30;88.50;;;;;;5111305;28;20058;-76
2021/12/14 01:57:27;;;;;;;11.85;8.57;;;10.30;88.90;;;;;;5107545;28;20032;-76
2021/12/14 01:59:57;;;;;;;10.20;7.78;;;10.40;88.90;;;;;;5107607;27;20027;-75
2021/12/14 02:02:41;;;;;;;11.70;8.60;;;10.40;88.70;;;;;;5104834;28;20058;-75
2021/12/14 02:05:14;;;;;;;10.23;8.00;;;10.40;88.50;;;;;;5111204;28;20080;-76
2021/12/14 02:07:40;;;;;;;11.23;8.27;;;10.40;88.90;;;;;;5111459;28;20031;-76
2021/12/14 02:10:14;;;;;;;10.90;7.72;;;10.40;88.80;;;;;;5113847;28;20031;-76
2021/12/14 02:12:42;;;;;;;11.27;8.25;;;10.40;88.90;;;;;;5114825;28;20376;-75
2021/12/14 02:15:19;;;;;;;10.80;8.50;;;10.50;88.90;;;;;;5111292;28;20053;-75
2021/12/14 02:17:46;;;;;;;12.00;8.50;;;10.40;88.60;;;;;;5111052;28;20097;-75
2021/12/14 02:20:16;;;;;;;11.98;9.20;;;10.40;88.50;;;;;;5112228;28;20030;-75
2021/12/14 02:22:43;;;;;;;10.52;8.18;;;10.40;88.50;;;;;;5112739;28;20044;-75
2021/12/14 02:25:10;;;;;;;11.98;8.73;;;10.40;88.40;;;;;;5113171;28;20067;-75
2021/12/14 02:27:41;;;;;;;11.32;8.55;;;10.40;88.50;;;;;;5111513;28;20035;-76
2021/12/14 02:30:11;;;;;;;11.43;8.48;;;10.40;88.50;;;;;;5105425;28;20032;-75
2021/12/14 02:32:36;;;;;;;12.15;8.32;;;10.50;88.30;;;;;;5103575;28;20016;-76
2021/12/14 02:35:10;;;;;;;12.05;8.95;;;10.50;88.90;;;;;;5110621;28;20031;-76
2021/12/14 02:37:46;;;;;;;14.63;9.65;;;10.40;87.60;;;;;;5111740;27;20047;-75
2021/12/14 02:40:53;;;;;;;11.00;7.78;;;10.40;88.30;;;;;;5113027;28;20480;-76
2021/12/14 02:43:11;;;;;;;11.32;8.35;;;10.40;88.30;;;;;;5110049;28;20027;-75
2021/12/14 02:45:36;;;;;;;10.70;8.07;;;10.40;88.50;;;;;;5111515;28;20083;-76
2021/12/14 02:48:08;;;;;;;12.32;9.15;;;10.40;88.10;;;;;;5111234;28;20099;-75
2021/12/14 02:50:34;;;;;;;12.07;8.82;;;10.40;88.40;;;;;;5096445;28;20482;-76
2021/12/14 02:52:59;;;;;;;11.32;8.35;;;10.40;88.40;;;;;;5111615;28;20055;-75
2021/12/14 02:55:27;;;;;;;11.18;8.25;;;10.40;88.20;;;;;;5093280;28;20508;-75
2021/12/14 02:57:57;;;;;;;12.05;7.78;;;10.40;88.40;;;;;;5113466;28;20027;-75
2021/12/14 03:00:42;;;;;;;11.93;8.20;;;10.50;88.30;;;;;;5120459;27;20445;-75
2021/12/14 03:03:09;;;;;;;9.38;7.22;;;10.40;88.40;;;;;;5098859;28;20016;-75
2021/12/14 03:05:38;;;;;;;11.52;8.40;;;10.50;88.70;;;;;;5110092;28;20032;-75
2021/12/14 03:08:25;;;;;;;11.60;7.72;;;10.50;88.20;;;;;;5095382;28;20023;-75
2021/12/14 03:13:31;;;;;;;10.70;7.53;;;10.40;87.60;;;;;;5104636;28;20036;-76
2021/12/14 03:15:59;;;;;;;10.77;7.90;;;10.40;87.70;;;;;;5108927;28;20031;-76
2021/12/14 03:18:32;;;;;;;11.15;7.90;;;10.40;88.00;;;;;;5111315;28;20392;-75
2021/12/14 03:21:14;;;;;;;11.95;8.20;;;10.40;88.10;;;;;;5111020;28;20034;-75
2021/12/14 03:23:56;;;;;;;11.70;8.32;;;10.40;88.00;;;;;;5096552;28;20480;-75
2021/12/14 03:26:25;;;;;;;9.52;6.75;;;10.40;87.70;;;;;;5110003;28;20032;-76
2021/12/14 03:28:54;;;;;;;11.25;7.93;;;10.40;88.30;;;;;;5091030;28;20089;-75
2021/12/14 03:31:35;;;;;;;10.07;7.30;;;10.40;88.30;;;;;;5110859;28;20036;-76
2021/12/14 03:34:06;;;;;;;10.80;7.97;;;10.50;88.30;;;;;;5113198;28;20072;-76
2021/12/14 03:36:38;;;;;;;12.13;8.07;;;10.40;87.70;;;;;;5110528;28;20016;-75
2021/12/14 03:39:10;;;;;;;11.00;8.43;;;10.40;87.40;;;;;;5110634;28;20039;-76
2021/12/14 03:41:42;;;;;;;10.48;8.30;;;10.30;87.70;;;;;;5096219;28;20304;-75
2021/12/14 03:44:23;;;;;;;11.48;7.82;;;10.40;88.60;;;;;;5094746;28;20020;-75
2021/12/14 03:46:58;;;;;;;11.18;8.40;;;10.40;87.60;;;;;;5108106;28;20082;-76
2021/12/14 03:49:32;;;;;;;12.05;8.85;;;10.30;87.00;;;;;;5102842;28;20081;-75
2021/12/14 03:51:58;;;;;;;11.82;8.63;;;10.20;87.30;;;;;;5105307;28;20034;-75
2021/12/14 03:54:25;;;;;;;12.07;8.48;;;10.20;87.70;;;;;;5110580;28;20055;-76
2021/12/14 03:56:51;;;;;;;11.77;8.60;;;10.20;88.10;;;;;;5108907;28;20110;-76
2021/12/14 03:59:18;;;;;;;12.65;8.35;;;10.20;88.00;;;;;;5099527;27;20158;-76
2021/12/14 04:01:46;;;;;;;13.18;8.50;;;10.10;88.10;;;;;;5123528;27;20047;-76
2021/12/14 04:04:21;;;;;;;12.80;8.80;;;10.10;87.80;;;;;;5110893;28;20112;-75
2021/12/14 04:06:51;;;;;;;12.68;8.52;;;10.10;88.10;;;;;;5111483;28;20020;-76
2021/12/14 04:09:20;;;;;;;11.93;8.52;;;10.10;88.60;;;;;;5108979;28;20039;-76
2021/12/14 04:11:46;;;;;;;11.52;8.23;;;10.10;88.00;;;;;;5107624;28;20042;-75
2021/12/14 04:14:13;;;;;;;10.93;8.07;;;10.20;88.60;;;;;;5108677;28;20043;-76
2021/12/14 04:16:41;;;;;;;11.90;8.27;;;10.20;88.40;;;;;;5090905;28;20095;-76
2021/12/14 04:19:11;;;;;;;10.50;7.70;;;10.20;88.60;;;;;;5111377;28;20457;-76
2021/12/14 04:21:41;;;;;;;12.15;8.00;;;10.20;88.30;;;;;;5096934;28;20061;-76
2021/12/14 04:24:09;;;;;;;11.60;8.15;;;10.20;88.30;;;;;;5109266;28;20068;-76
2021/12/14 04:26:36;;;;;;;11.07;8.38;;;10.20;88.40;;;;;;5108227;28;20069;-76
2021/12/14 04:29:04;;;;;;;10.80;8.30;;;10.20;88.00;;;;;;5109885;28;20472;-76
2021/12/14 04:31:33;;;;;;;11.35;7.68;;;10.20;88.30;;;;;;5093034;28;20027;-76
2021/12/14 04:33:59;;;;;;;11.93;7.93;;;10.30;88.70;;;;;;5108259;28;20030;-76
2021/12/14 04:36:27;;;;;;;10.60;7.60;;;10.30;88.40;;;;;;5108546;28;20047;-75
2021/12/14 04:38:59;;;;;;;11.25;8.82;;;10.30;88.40;;;;;;5109513;28;20019;-75
2021/12/14 04:52:35;;;;;;;10.25;7.80;;;10.30;88.50;;;;;;5094019;28;20027;-75
2021/12/14 04:55:06;;;;;;;12.10;7.93;;;10.30;88.20;;;;;;5111696;28;20112;-75
2021/12/14 04:57:38;;;;;;;15.00;9.05;;;10.20;88.10;;;;;;5108920;28;20081;-75
2021/12/14 05:00:23;;;;;;;11.15;8.38;;;10.10;87.50;;;;;;5102458;28;20467;-76
2021/12/14 05:02:50;;;;;;;11.65;8.35;;;10.10;88.00;;;;;;5114644;28;20119;-75
2021/12/14 05:05:21;;;;;;;10.20;7.55;;;10.00;88.10;;;;;;5108092;28;20023;-76
2021/12/14 05:11:03;;;;;;;10.25;7.60;;;9.90;88.40;;;;;;5093014;28;20061;-75
2021/12/14 05:13:39;;;;;;;10.02;6.78;;;10.00;89.20;;;;;;5092248;28;20051;-76
2021/12/14 05:16:05;;;;;;;8.82;6.22;;;10.00;88.50;;;;;;5091786;28;20016;-75
2021/12/14 05:18:31;;;;;;;9.93;6.20;;;10.00;88.70;;;;;;5108920;28;20110;-75
2021/12/14 05:20:58;;;;;;;12.20;7.78;;;10.00;88.40;;;;;;5107382;28;20107;-76
2021/12/14 05:23:28;;;;;;;12.63;7.78;;;9.90;87.70;;;;;;5095238;28;20032;-76
2021/12/14 05:25:54;;;;;;;10.45;6.90;;;9.90;88.30;;;;;;5109047;28;20020;-76
2021/12/14 05:28:21;;;;;;;9.70;6.93;;;9.90;89.00;;;;;;5109126;28;20028;-76
2021/12/14 05:30:50;;;;;;;8.07;5.85;;;10.00;88.50;;;;;;5108368;28;20510;-76
2021/12/14 05:33:23;;;;;;;8.00;5.75;;;10.00;89.20;;;;;;5108182;28;20391;-76
2021/12/14 05:35:53;;;;;;;8.98;6.72;;;10.10;88.70;;;;;;5099919;28;20441;-77
2021/12/14 05:38:27;;;;;;;8.45;6.03;;;10.10;88.60;;;;;;5112738;28;20391;-76
2021/12/14 05:43:25;;;;;;;7.90;5.65;;;10.00;88.10;;;;;;5112917;28;20445;-76
2021/12/14 05:46:01;;;;;;;8.13;6.28;;;10.00;88.40;;;;;;5113358;28;20028;-75
2021/12/14 05:48:33;;;;;;;9.55;7.03;;;10.00;89.10;;;;;;5104606;27;20465;-76
2021/12/14 05:51:09;;;;;;;9.27;6.53;;;10.00;88.20;;;;;;5115486;27;20050;-76
2021/12/14 05:53:38;;;;;;;9.07;6.85;;;9.90;89.40;;;;;;5111050;28;20024;-75
2021/12/14 05:56:20;;;;;;;9.63;7.22;;;9.90;88.40;;;;;;5094659;28;20028;-76
2021/12/14 05:58:47;;;;;;;9.48;7.22;;;9.90;88.90;;;;;;5093784;28;20024;-75
2021/12/14 06:01:17;;;;;;;10.50;7.63;;;10.00;88.70;;;;;;5129693;27;20026;-76
2021/12/14 06:03:53;;;;;;;10.50;7.45;;;10.00;90.00;;;;;;5113434;28;20047;-75
2021/12/14 06:06:27;;;;;;;8.95;6.90;;;10.00;89.30;;;;;;5112253;28;20131;-76
2021/12/14 06:09:18;;;;;;;12.20;8.25;;;10.00;89.10;;;;;;5100885;28;20499;-76
2021/12/14 06:11:48;;;;;;;11.20;7.40;;;10.10;88.70;;;;;;5111554;28;20088;-76
2021/12/14 06:14:22;;;;;;;10.77;7.88;;;10.00;88.20;;;;;;5112195;28;20077;-76
2021/12/14 06:16:53;;;;;;;10.45;7.65;;;9.90;88.30;;;;;;5111030;28;20044;-75
2021/12/14 06:19:26;;;;;;;11.75;7.97;;;9.90;89.00;;;;;;5109581;28;20030;-76
2021/12/14 06:21:53;;;;;;;;;;;9.90;88.70;;;;;;5114587;28;20023;-76
2021/12/14 06:24:31;;;;;;;10.57;7.65;;;9.90;88.80;;;;;;5111769;28;19914;-75
2021/12/14 06:26:59;;;;;;;10.35;6.88;;;9.90;88.90;;;;;;5109357;28;20032;-75
2021/12/14 06:29:30;;;;;;;10.40;7.55;;;9.90;88.90;;;;;;5110353;28;20084;-74
2021/12/14 06:31:58;;;;;;;9.75;7.32;;;9.90;89.30;;;;;;5111717;28;20437;-74
2021/12/14 06:34:29;;;;;;;10.55;7.93;;;9.90;90.10;;;;;;5112138;28;20511;-75
2021/12/14 06:37:03;;;;;;;10.07;8.00;;;10.00;89.30;;;;;;5113641;28;20035;-75
2021/12/14 06:39:30;;;;;;;8.65;6.43;;;10.10;89.00;;;;;;5095941;28;20575;-75
2021/12/14 06:42:06;;;;;;;9.05;6.75;;;10.00;88.70;;;;;;5112197;28;20073;-75
2021/12/14 06:44:33;;;;;;;9.75;7.07;;;10.00;89.80;;;;;;5097419;28;20043;-75
2021/12/14 06:46:59;;;;;;;9.55;6.93;;;10.00;88.50;;;;;;5113781;28;20512;-75
2021/12/14 06:49:24;;;;;;;9.82;6.93;;;9.90;88.70;;;;;;5111631;28;20110;-75
2021/12/14 06:51:55;;;;;;;9.90;7.35;;;9.80;88.20;;;;;;5113669;28;20447;-75
2021/12/14 06:54:27;;;;;;;9.52;7.00;;;9.90;89.60;;;;;;5112867;28;20110;-75
2021/12/14 06:56:58;;;;;;;11.57;8.13;;;9.80;88.90;;;;;;5109677;28;20118;-76
2021/12/14 06:59:24;;;;;;;9.35;7.20;;;9.80;88.70;;;;;;5100167;27;20059;-76
2021/12/14 07:01:54;;;;;;;10.23;7.65;;;9.90;88.90;;;;;;5125236;27;20050;-76
2021/12/14 07:04:48;;;;;;;9.88;7.07;;;9.80;88.70;;;;;;5111155;28;20024;-76
2021/12/14 07:07:17;;;;;;;9.57;7.10;;;9.80;89.40;;;;;;5112285;28;20020;-76
2021/12/14 07:09:47;;;;;;;9.75;6.97;;;9.80;89.10;;;;;;5111676;28;20038;-75
2021/12/14 07:12:17;;;;;;;9.35;6.80;;;9.80;88.80;;;;;;5109830;28;20066;-77
2021/12/14 07:15:15;;;;;;;8.27;5.88;;;9.70;88.90;;;;;;5109194;28;20081;-77
2021/12/14 07:17:48;;;;;;;8.90;6.40;;;9.70;89.80;;;;;;5111350;28;20107;-76
2021/12/14 07:20:14;;;;;;;9.52;7.10;;;9.70;89.00;;;;;;5109391;28;20039;-77
2021/12/14 07:22:45;;;;;;;9.25;6.78;;;9.60;88.80;;;;;;5110418;28;20016;-76
2021/12/14 07:25:28;;;;;;;9.55;6.50;;;9.60;89.70;;;;;;5109538;28;20031;-76
2021/12/14 07:27:55;;;;;;;8.88;6.25;;;9.50;89.30;;;;;;5112907;28;20550;-76
2021/12/14 07:30:32;;;;;;;8.57;6.00;;;9.60;89.70;;;;;;5111824;27;20152;-76
2021/12/14 07:33:13;;;;;;;8.50;5.72;;;9.70;90.00;;;;;;5110685;28;20027;-76
2021/12/14 07:35:50;;;;;;;9.65;6.07;;;9.60;89.20;;;;;;5110962;28;20054;-77
2021/12/14 07:38:16;;;;;;;7.43;5.57;;;9.70;89.70;;;;;;5110434;27;20544;-77
2021/12/14 07:40:46;;;;;;;7.65;5.50;;;9.80;89.60;;;;;;5115770;28;20027;-76
2021/12/14 07:43:25;;;;;;;7.85;5.20;;;9.70;89.80;;;;;;5115917;28;20028;-75
2021/12/14 07:45:52;;;;;;;7.55;5.15;;;9.70;89.20;;;;;;5118213;28;20016;-77
2021/12/14 07:48:36;;;;;;;8.25;6.15;;;9.70;89.40;;;;;;5116125;28;20027;-77
2021/12/14 07:51:03;;;;;;;8.45;5.93;;;9.80;89.70;;;;;;5108638;28;20031;-76
2021/12/14 07:53:30;;;;;;;8.13;5.93;;;9.70;89.00;;;;;;5106183;27;20016;-76
2021/12/14 07:55:56;;;;;;;8.68;6.35;;;9.70;89.60;;;;;;5110362;27;20500;-77
2021/12/14 07:58:44;;;;;;;8.63;6.03;;;9.70;89.60;;;;;;5096347;28;20127;-77
2021/12/14 08:01:10;;;;;;;9.05;6.53;;;9.70;89.40;;;;;;5115651;27;20024;-76
2021/12/14 08:03:37;;;;;;;8.43;5.95;;;9.70;89.50;;;;;;5109132;28;20019;-76
2021/12/14 08:06:06;;;;;;;9.90;6.60;;;9.70;89.00;;;;;;5092568;28;20106;-76
2021/12/14 08:08:42;;;;;;;9.82;7.25;;;9.60;89.30;;;;;;5113026;27;20072;-75
2021/12/14 08:14:04;;;;;;;9.07;6.55;;;9.60;89.30;;;;;;5108577;28;20032;-77
2021/12/14 08:16:56;;;;;;;8.75;5.75;;;9.60;90.00;;;;;;5111545;27;20050;-77
2021/12/14 08:19:42;;;;;;;9.68;6.45;;;9.70;89.80;;;;;;5112576;27;20115;-75
2021/12/14 08:22:13;;;;;;;8.88;6.65;;;9.60;89.30;;;;;;5109722;27;20515;-75
2021/12/14 08:24:46;;;;;;;7.70;5.35;;;9.60;90.10;;;;;;5111598;27;20034;-75
2021/12/14 08:27:12;;;;;;;8.50;6.13;;;9.70;90.10;;;;;;5110618;28;20077;-76
2021/12/14 08:29:37;;;;;;;9.02;6.43;;;9.70;90.40;;;;;;5109903;28;20051;-75
2021/12/14 08:32:03;;;;;;;10.88;7.25;;;9.70;89.50;;;;;;5110867;28;20031;-75
2021/12/14 08:34:33;;;;;;;9.63;6.03;;;9.70;90.00;;;;;;5109660;28;20027;-75
2021/12/14 08:37:09;;;;;;;12.30;7.60;;;9.90;90.40;;;;;;5114269;27;20031;-75
2021/12/14 08:40:00;;;;;;;9.85;6.72;;;10.00;89.80;;;;;;5109292;28;20038;-64
2021/12/14 08:42:42;;;;;;;9.85;6.75;;;9.90;89.70;;;;;;5110456;27;20092;-65
2021/12/14 08:45:33;;;;;;;10.45;7.25;;;9.90;90.10;;;;;;5113386;27;20027;-63
2021/12/14 08:48:02;;;;;;;10.82;7.88;;;10.00;89.70;;;;;;5111383;28;20039;-63
2021/12/14 08:50:33;;;;;;;11.27;7.22;;;9.90;89.10;;;;;;5119271;27;20035;-63
2021/12/14 08:52:59;;;;;;;11.68;7.93;;;9.90;88.90;;;;;;5096942;28;20429;-64
2021/12/14 08:55:31;;;;;;;11.43;7.75;;;9.90;89.80;;;;;;5091682;28;20048;-64
2021/12/14 08:57:58;;;;;;;12.30;7.97;;;10.00;90.00;;;;;;5131243;27;20023;-65
2021/12/14 09:00:35;;;;;;;11.68;8.15;;;10.00;89.70;;;;;;5096257;28;20027;-64
2021/12/14 09:03:04;;;;;;;12.63;8.13;;;10.00;89.50;;;;;;5105705;28;20023;-65
2021/12/14 09:05:47;;;;;;;12.27;8.65;;;10.00;89.20;;;;;;5092744;28;20036;-64
2021/12/14 09:08:14;;;;;;;12.73;8.40;;;10.10;89.50;;;;;;5117522;27;20035;-65
2021/12/14 09:10:42;;;;;;;9.65;7.07;;;10.10;89.40;;;;;;5115177;27;20031;-64
2021/12/14 09:13:11;;;;;;;10.73;7.57;;;10.20;89.00;;;;;;5097668;28;20024;-64
2021/12/14 09:15:51;;;;;;;10.35;6.97;;;10.20;89.30;;;;;;5116729;27;20085;-65
2021/12/14 09:18:18;;;;;;;9.50;6.43;;;10.20;89.20;;;;;;5111162;27;20027;-65
2021/12/14 09:21:01;;;;;;;10.80;7.25;;;10.20;89.00;;;;;;5123616;27;20030;-64
2021/12/14 09:23:37;;;;;;;10.35;6.53;;;10.20;88.90;;;;;;5116783;27;20492;-65
2021/12/14 09:26:09;;;;;;;9.93;6.95;;;10.10;88.70;;;;;;5114108;27;20445;-65
2021/12/14 09:28:36;;;;;;;10.15;7.10;;;10.10;88.90;;;;;;5094942;28;20042;-64
2021/12/14 09:31:08;;;;;;;10.98;6.85;;;10.10;89.10;;;;;;5121545;27;20491;-64
2021/12/14 09:33:38;;;;;;;10.67;7.47;;;10.20;89.30;;;;;;5124755;27;20102;-64
2021/12/14 09:36:11;;;;;;;11.40;7.10;;;10.20;89.20;;;;;;5114109;27;20285;-64
2021/12/14 09:38:40;;;;;;;12.02;7.60;;;10.20;88.70;;;;;;5107659;27;20023;-63
2021/12/14 09:41:09;;;;;;;11.98;7.80;;;10.10;88.70;;;;;;5122336;27;20023;-64
2021/12/14 09:43:36;;;;;;;12.60;7.68;;;10.10;89.00;;;;;;5110223;28;20594;-64
2021/12/14 09:46:04;;;;;;;12.98;8.43;;;10.10;88.50;;;;;;5118039;27;20026;-64
2021/12/14 09:48:41;;;;;;;12.77;7.72;;;10.10;89.10;;;;;;5114540;27;20015;-64
2021/12/14 09:51:14;;;;;;;14.35;8.30;;;10.30;89.50;;;;;;5121276;27;20095;-64
2021/12/14 09:53:41;;;;;;;;;;;10.20;88.80;;;;;;5120761;27;20016;-65
2021/12/14 09:56:10;;;;;;;8.70;6.18;;;10.20;88.60;;;;;;5118967;27;19915;-65
2021/12/14 09:58:41;;;;;;;9.88;6.68;;;10.20;88.70;;;;;;5121275;27;20496;-64
2021/12/14 10:01:15;;;;;;;12.02;6.38;;;10.10;88.90;;;;;;5120061;27;20072;-64
2021/12/14 10:03:42;;;;;;;8.05;5.28;;;10.20;89.30;;;;;;5103272;28;20106;-64
2021/12/14 10:06:11;;;;;;;9.95;6.03;;;10.10;88.40;;;;;;5110018;28;20066;-65
2021/12/14 10:08:42;;;;;;;11.05;7.00;;;10.10;88.60;;;;;;5107720;27;20015;-66
2021/12/14 10:11:24;;;;;;;10.90;7.60;;;10.20;89.10;;;;;;5117237;27;20051;-65
2021/12/14 10:13:54;;;;;;;11.30;7.40;;;10.10;88.80;;;;;;5113671;27;20012;-64
2021/12/14 10:16:20;;;;;;;12.77;7.72;;;10.10;88.90;;;;;;5129116;27;20054;-65
2021/12/14 10:18:50;;;;;;;12.88;7.75;;;10.10;88.70;;;;;;5117154;27;20098;-65
2021/12/14 10:21:20;;;;;;;12.15;7.55;;;10.10;89.20;;;;;;5115722;27;20135;-65
2021/12/14 10:23:48;;;;;;;13.52;7.47;;;10.20;89.50;;;;;;5112966;27;20016;-65
2021/12/14 10:26:16;;;;;;;12.48;7.50;;;10.20;89.50;;;;;;5118983;27;20031;-65
2021/12/14 10:28:46;;;;;;;12.73;8.00;;;10.20;89.10;;;;;;5124961;27;20021;-65
2021/12/14 10:31:27;;;;;;;11.55;8.30;;;10.20;88.90;;;;;;5119163;27;20095;-65
2021/12/14 10:33:53;;;;;;;12.50;7.13;;;10.20;88.70;;;;;;5125499;27;20384;-65
2021/12/14 10:36:46;;;;;;;11.05;7.28;;;10.20;88.80;;;;;;5111759;27;20108;-65
2021/12/14 10:39:24;;;;;;;11.00;7.15;;;10.30;89.00;;;;;;5121088;27;20099;-65
2021/12/14 10:44:43;;;;;;;12.10;7.88;;;10.30;89.40;;;;;;5113534;27;20026;-65
2021/12/14 10:47:11;;;;;;;11.23;7.53;;;10.40;89.30;;;;;;5120739;27;20123;-65
2021/12/14 10:49:37;;;;;;;11.48;7.30;;;10.40;89.00;;;;;;5116652;27;20031;-65
2021/12/14 10:52:14;;;;;;;12.48;7.72;;;10.40;88.60;;;;;;5129095;27;20046;-65
2021/12/14 10:54:42;;;;;;;12.70;7.47;;;10.40;88.40;;;;;;5115003;27;20043;-65
2021/12/14 10:57:12;;;;;;;9.85;6.53;;;10.30;88.20;;;;;;5121183;27;20077;-65
2021/12/14 10:59:42;;;;;;;12.75;7.70;;;10.20;88.80;;;;;;5119635;27;20027;-65
2021/12/14 11:02:08;;;;;;;11.13;7.38;;;10.30;88.50;;;;;;5111831;27;20022;-65
2021/12/14 11:04:40;;;;;;;12.35;7.55;;;10.20;88.40;;;;;;5109034;28;20054;-65
2021/12/14 11:07:17;;;;;;;11.10;7.10;;;10.20;89.50;;;;;;5119388;27;20019;-65
2021/12/14 11:09:49;;;;;;;12.95;7.70;;;10.30;89.50;;;;;;5117643;27;20519;-65
2021/12/14 11:12:15;;;;;;;12.88;8.02;;;10.30;88.50;;;;;;5098537;27;20388;-65
2021/12/14 11:14:41;;;;;;;15.25;8.50;;;10.30;89.00;;;;;;5119767;27;20088;-65
2021/12/14 11:20:00;;;;;;;12.80;7.90;;;10.30;89.00;;;;;;5108654;28;20042;-65
2021/12/14 11:22:26;;;;;;;8.52;5.45;;;10.40;88.90;;;;;;5109885;28;20024;-65
2021/12/14 11:25:02;;;;;;;11.73;7.63;;;10.30;88.60;;;;;;5111436;28;20031;-65
2021/12/14 11:27:32;;;;;;;10.80;6.72;;;10.30;88.60;;;;;;5109467;28;20020;-64
2021/12/14 11:30:21;;;;;;;12.00;6.70;;;10.40;88.80;;;;;;5108753;28;20088;-63
2021/12/14 11:33:08;;;;;;;11.43;6.97;;;10.40;88.90;;;;;;5107922;28;20020;-63
2021/12/14 11:35:40;;;;;;;11.45;6.60;;;10.40;89.20;;;;;;5107763;28;20027;-65
2021/12/14 11:38:26;;;;;;;10.88;6.10;;;10.50;89.20;;;;;;5109654;28;20114;-64
2021/12/14 11:40:52;;;;;;;10.55;6.25;;;10.60;89.10;;;;;;5108277;28;20131;-64
2021/12/14 11:43:24;;;;;;;12.90;7.70;;;10.70;89.00;;;;;;5109183;28;20027;-65
2021/12/14 11:45:50;;;;;;;9.90;6.30;;;10.60;88.40;;;;;;5112073;28;20027;-65
2021/12/14 11:48:34;;;;;;;12.35;7.20;;;10.70;88.90;;;;;;5103345;28;20035;-64
2021/12/14 11:51:04;;;;;;;12.25;7.00;;;10.70;88.90;;;;;;5095164;28;20512;-64
2021/12/14 11:53:30;;;;;;;14.70;7.95;;;10.80;88.60;;;;;;5093763;28;20491;-63
2021/12/14 11:56:00;;;;;;;12.90;7.70;;;10.70;87.60;;;;;;5108606;28;20040;-63
2021/12/14 11:58:33;;;;;;;13.20;7.78;;;10.60;88.30;;;;;;5125762;27;20469;-63
2021/12/14 12:01:14;;;;;;;14.85;8.10;;;10.60;87.80;;;;;;5100272;27;20036;-63
2021/12/14 12:03:42;;;;;;;12.52;7.70;;;10.60;87.80;;;;;;5097920;28;20028;-64
2021/12/14 12:06:44;;;;;;;12.85;7.40;;;10.40;87.40;;;;;;5096857;28;20023;-65
2021/12/14 12:12:09;;;;;;;12.95;7.60;;;10.30;88.20;;;;;;5108420;28;20530;-63
2021/12/14 12:14:39;;;;;;;14.05;8.20;;;10.30;88.60;;;;;;5109761;28;20064;-63
2021/12/14 12:17:24;;;;;;;13.18;7.28;;;10.30;89.50;;;;;;5108220;28;20023;-64
2021/12/14 12:19:52;;;;;;;12.43;7.00;;;10.20;87.90;;;;;;5093782;28;20058;-63
2021/12/14 12:22:18;;;;;;;13.65;7.25;;;10.20;88.90;;;;;;5109025;28;20081;-64
2021/12/14 12:24:48;;;;;;;11.48;7.13;;;10.20;89.30;;;;;;5110681;28;20032;-66
2021/12/14 12:27:35;;;;;;;11.90;7.53;;;10.30;89.20;;;;;;5108444;28;20077;-65
2021/12/14 12:30:09;;;;;;;11.52;7.05;;;10.40;89.60;;;;;;5107601;28;20089;-65
2021/12/14 12:32:35;;;;;;;11.43;7.10;;;10.50;88.70;;;;;;5107834;28;20047;-64
2021/12/14 12:35:18;;;;;;;14.82;8.13;;;10.40;88.10;;;;;;5108504;28;20028;-64
2021/12/14 12:37:44;;;;;;;10.70;7.00;;;10.50;88.60;;;;;;5108863;28;20473;-64
2021/12/14 12:40:15;;;;;;;10.52;5.90;;;10.50;88.90;;;;;;5109942;28;20074;-64
2021/12/14 12:42:42;;;;;;;9.88;5.85;;;10.70;89.20;;;;;;5111046;28;20020;-64
2021/12/14 12:45:33;;;;;;;10.15;6.28;;;10.80;88.20;;;;;;5099634;28;20039;-64
2021/12/14 12:48:01;;;;;;;9.02;5.07;;;10.80;88.50;;;;;;5106950;28;20019;-64
2021/12/14 12:50:28;;;;;;;9.90;6.15;;;10.80;87.60;;;;;;5106963;28;20400;-65
2021/12/14 12:52:55;;;;;;;10.52;6.00;;;10.70;87.50;;;;;;5108112;28;20024;-64
2021/12/14 12:55:30;;;;;;;7.82;5.40;;;10.70;87.50;;;;;;5108242;28;20115;-64
2021/12/14 12:58:10;;;;;;;8.15;5.53;;;10.80;87.90;;;;;;5093954;28;20507;-65
2021/12/14 13:00:43;;;;;;;9.45;5.88;;;11.00;88.10;;;;;;5122606;28;20568;-65
2021/12/14 13:03:24;;;;;;;8.27;5.90;;;11.10;87.80;;;;;;5105273;28;20033;-64
2021/12/14 13:06:01;;;;;;;10.13;5.47;;;11.10;87.70;;;;;;5101917;28;20280;-64
2021/12/14 13:08:33;;;;;;;8.75;5.30;;;11.20;87.20;;;;;;5107303;28;20052;-64
2021/12/14 13:11:18;;;;;;;9.98;5.50;;;11.40;87.70;;;;;;5107149;28;20403;-65
2021/12/14 13:13:57;;;;;;;7.93;5.68;;;11.40;86.50;;;;;;5093712;28;20031;-64
2021/12/14 13:16:27;;;;;;;9.48;5.97;;;11.30;86.10;;;;;;5108344;28;20072;-63
2021/12/14 13:19:13;;;;;;;9.00;5.70;;;11.30;86.70;;;;;;5101849;28;20509;-63
2021/12/14 13:21:58;;;;;;;9.32;6.20;;;11.40;86.70;;;;;;5107686;28;20059;-64
2021/12/14 13:24:28;;;;;;;8.50;5.07;;;11.40;86.90;;;;;;5100958;28;20035;-63
2021/12/14 13:27:22;;;;;;;10.25;6.47;;;11.70;87.80;;;;;;5110293;28;20027;-64
2021/12/14 13:30:00;;;;;;;10.10;5.53;;;11.70;86.00;;;;;;5112195;28;20035;-64
2021/12/14 13:32:32;;;;;;;9.13;6.10;;;11.60;85.40;;;;;;5113799;28;20031;-64
2021/12/14 13:35:03;;;;;;;10.25;6.35;;;11.50;84.90;;;;;;5104884;28;20052;-64
2021/12/14 13:37:38;;;;;;;9.77;6.22;;;11.40;85.30;;;;;;5104611;28;20149;-64
2021/12/14 13:40:17;;;;;;;8.95;5.70;;;11.40;85.80;;;;;;5106686;28;20384;-64
2021/12/14 13:42:52;;;;;;;9.52;5.65;;;11.50;86.60;;;;;;5109284;28;20023;-64
2021/12/14 13:45:28;;;;;;;10.10;6.20;;;11.60;85.80;;;;;;5130792;27;20036;-64
2021/12/14 13:47:54;;;;;;;11.55;6.90;;;11.50;85.70;;;;;;5108127;28;20102;-64
2021/12/14 13:50:33;;;;;;;10.68;6.28;;;11.50;86.10;;;;;;5107185;28;20408;-64